sensor_id;sensor_type;location;lat;lon;timestamp;P1;durP1;ratioP1;P2;durP2;ratioP2
17953;SDS011;9102;53.548;9.926;2023-06-22T00:00:10;7.05;;;5.20;;
17953;SDS011;9102;53.548;9.926;2023-06-22T00:02:37;9.35;;;4.97;;
17953;SDS011;9102;53.548;9.926;2023-06-22T00:05:04;7.43;;;4.80;;
17953;SDS011;9102;53.548;9.926;2023-06-22T00:07:33;8.45;;;5.40;;
17953;SDS011;9102;53.548;9.926;2023-06-22T00:09:59;6.50;;;5.07;;
17953;SDS011;9102;53.548;9.926;2023-06-22T00:12:26;9.25;;;5.50;;
17953;SDS011;9102;53.548;9.926;2023-06-22T00:14:53;7.25;;;4.97;;
17953;SDS011;9102;53.548;9.926;2023-06-22T00:17:20;7.55;;;5.38;;
17953;SDS011;9102;53.548;9.926;2023-06-22T00:19:46;8.52;;;5.18;;
17953;SDS011;9102;53.548;9.926;2023-06-22T00:22:18;9.68;;;5.60;;
17953;SDS011;9102;53.548;9.926;2023-06-22T00:24:48;6.53;;;5.05;;
17953;SDS011;9102;53.548;9.926;2023-06-22T00:27:14;7.82;;;5.18;;
17953;SDS011;9102;53.548;9.926;2023-06-22T00:29:41;7.30;;;5.18;;
17953;SDS011;9102;53.548;9.926;2023-06-22T00:32:08;7.18;;;4.68;;
17953;SDS011;9102;53.548;9.926;2023-06-22T00:34:35;9.07;;;4.97;;
17953;SDS011;9102;53.548;9.926;2023-06-22T00:37:01;9.63;;;5.18;;
17953;SDS011;9102;53.548;9.926;2023-06-22T00:39:28;9.73;;;5.68;;
17953;SDS011;9102;53.548;9.926;2023-06-22T00:41:57;7.82;;;5.72;;
17953;SDS011;9102;53.548;9.926;2023-06-22T00:44:25;7.50;;;5.25;;
17953;SDS011;9102;53.548;9.926;2023-06-22T00:46:52;7.57;;;5.30;;
17953;SDS011;9102;53.548;9.926;2023-06-22T00:49:19;7.72;;;4.57;;
17953;SDS011;9102;53.548;9.926;2023-06-22T00:51:46;7.78;;;5.07;;
17953;SDS011;9102;53.548;9.926;2023-06-22T00:54:13;8.38;;;4.93;;
17953;SDS011;9102;53.548;9.926;2023-06-22T00:56:40;10.88;;;5.55;;
17953;SDS011;9102;53.548;9.926;2023-06-22T00:59:08;7.45;;;5.47;;
17953;SDS011;9102;53.548;9.926;2023-06-22T01:01:37;10.15;;;5.60;;
17953;SDS011;9102;53.548;9.926;2023-06-22T01:04:06;9.27;;;5.07;;
17953;SDS011;9102;53.548;9.926;2023-06-22T01:06:34;9.50;;;5.28;;
17953;SDS011;9102;53.548;9.926;2023-06-22T01:09:12;8.95;;;5.72;;
17953;SDS011;9102;53.548;9.926;2023-06-22T01:11:42;9.30;;;5.22;;
17953;SDS011;9102;53.548;9.926;2023-06-22T01:14:14;12.55;;;5.80;;
17953;SDS011;9102;53.548;9.926;2023-06-22T01:16:46;7.10;;;4.88;;
17953;SDS011;9102;53.548;9.926;2023-06-22T01:19:27;7.18;;;4.57;;
17953;SDS011;9102;53.548;9.926;2023-06-22T01:22:01;7.82;;;5.50;;
17953;SDS011;9102;53.548;9.926;2023-06-22T01:24:32;7.20;;;5.10;;
17953;SDS011;9102;53.548;9.926;2023-06-22T01:27:09;8.40;;;5.47;;
17953;SDS011;9102;53.548;9.926;2023-06-22T01:29:48;10.52;;;5.80;;
17953;SDS011;9102;53.548;9.926;2023-06-22T01:32:16;14.57;;;6.53;;
17953;SDS011;9102;53.548;9.926;2023-06-22T01:34:44;14.20;;;6.65;;
17953;SDS011;9102;53.548;9.926;2023-06-22T01:37:12;9.95;;;6.60;;
17953;SDS011;9102;53.548;9.926;2023-06-22T01:39:40;11.82;;;7.05;;
17953;SDS011;9102;53.548;9.926;2023-06-22T01:42:08;11.55;;;6.75;;
17953;SDS011;9102;53.548;9.926;2023-06-22T01:44:35;9.82;;;6.35;;
17953;SDS011;9102;53.548;9.926;2023-06-22T01:47:05;11.25;;;6.75;;
17953;SDS011;9102;53.548;9.926;2023-06-22T01:49:33;11.63;;;6.57;;
17953;SDS011;9102;53.548;9.926;2023-06-22T01:51:59;9.77;;;6.68;;
17953;SDS011;9102;53.548;9.926;2023-06-22T01:54:26;12.82;;;6.82;;
17953;SDS011;9102;53.548;9.926;2023-06-22T01:56:53;12.18;;;6.80;;
17953;SDS011;9102;53.548;9.926;2023-06-22T01:59:22;9.70;;;6.60;;
17953;SDS011;9102;53.548;9.926;2023-06-22T02:01:56;9.63;;;6.18;;
17953;SDS011;9102;53.548;9.926;2023-06-22T02:04:30;9.55;;;6.10;;
17953;SDS011;9102;53.548;9.926;2023-06-22T02:07:00;9.63;;;5.85;;
17953;SDS011;9102;53.548;9.926;2023-06-22T02:09:31;9.18;;;6.30;;
17953;SDS011;9102;53.548;9.926;2023-06-22T02:12:01;12.48;;;6.03;;
17953;SDS011;9102;53.548;9.926;2023-06-22T02:14:30;8.40;;;5.95;;
17953;SDS011;9102;53.548;9.926;2023-06-22T02:16:57;8.15;;;5.55;;
17953;SDS011;9102;53.548;9.926;2023-06-22T02:19:25;9.65;;;6.25;;
17953;SDS011;9102;53.548;9.926;2023-06-22T02:21:58;8.70;;;6.05;;
17953;SDS011;9102;53.548;9.926;2023-06-22T02:24:24;9.35;;;6.38;;
17953;SDS011;9102;53.548;9.926;2023-06-22T02:26:51;9.15;;;7.00;;
17953;SDS011;9102;53.548;9.926;2023-06-22T02:29:18;10.52;;;6.47;;
17953;SDS011;9102;53.548;9.926;2023-06-22T02:31:45;9.90;;;6.22;;
17953;SDS011;9102;53.548;9.926;2023-06-22T02:34:11;11.80;;;6.72;;
17953;SDS011;9102;53.548;9.926;2023-06-22T02:36:44;12.38;;;6.78;;
17953;SDS011;9102;53.548;9.926;2023-06-22T02:39:19;12.27;;;6.65;;
17953;SDS011;9102;53.548;9.926;2023-06-22T02:41:47;11.35;;;7.07;;
17953;SDS011;9102;53.548;9.926;2023-06-22T02:44:14;10.15;;;6.95;;
17953;SDS011;9102;53.548;9.926;2023-06-22T02:46:41;10.32;;;6.85;;
17953;SDS011;9102;53.548;9.926;2023-06-22T02:49:08;11.77;;;7.13;;
17953;SDS011;9102;53.548;9.926;2023-06-22T02:51:34;9.70;;;7.03;;
17953;SDS011;9102;53.548;9.926;2023-06-22T02:54:03;10.95;;;7.18;;
17953;SDS011;9102;53.548;9.926;2023-06-22T02:56:29;11.65;;;7.18;;
17953;SDS011;9102;53.548;9.926;2023-06-22T02:58:56;12.70;;;7.55;;
17953;SDS011;9102;53.548;9.926;2023-06-22T03:01:25;10.30;;;7.05;;
17953;SDS011;9102;53.548;9.926;2023-06-22T03:03:53;11.15;;;7.47;;
17953;SDS011;9102;53.548;9.926;2023-06-22T03:06:20;11.55;;;7.45;;
17953;SDS011;9102;53.548;9.926;2023-06-22T03:08:48;11.40;;;7.05;;
17953;SDS011;9102;53.548;9.926;2023-06-22T03:11:16;13.43;;;7.82;;
17953;SDS011;9102;53.548;9.926;2023-06-22T03:13:43;11.73;;;7.78;;
17953;SDS011;9102;53.548;9.926;2023-06-22T03:16:11;12.95;;;7.57;;
17953;SDS011;9102;53.548;9.926;2023-06-22T03:18:38;10.63;;;7.63;;
17953;SDS011;9102;53.548;9.926;2023-06-22T03:21:05;11.80;;;8.30;;
17953;SDS011;9102;53.548;9.926;2023-06-22T03:23:31;12.05;;;8.00;;
17953;SDS011;9102;53.548;9.926;2023-06-22T03:25:58;14.68;;;7.97;;
17953;SDS011;9102;53.548;9.926;2023-06-22T03:28:26;13.48;;;9.00;;
17953;SDS011;9102;53.548;9.926;2023-06-22T03:30:53;11.60;;;8.20;;
17953;SDS011;9102;53.548;9.926;2023-06-22T03:33:20;12.00;;;8.98;;
17953;SDS011;9102;53.548;9.926;2023-06-22T03:35:47;13.90;;;8.57;;
17953;SDS011;9102;53.548;9.926;2023-06-22T03:38:16;13.55;;;8.43;;
17953;SDS011;9102;53.548;9.926;2023-06-22T03:40:42;14.00;;;8.55;;
17953;SDS011;9102;53.548;9.926;2023-06-22T03:43:09;12.50;;;8.27;;
17953;SDS011;9102;53.548;9.926;2023-06-22T03:45:37;12.48;;;8.85;;
17953;SDS011;9102;53.548;9.926;2023-06-22T03:48:05;14.35;;;8.93;;
17953;SDS011;9102;53.548;9.926;2023-06-22T03:50:32;14.70;;;8.50;;
17953;SDS011;9102;53.548;9.926;2023-06-22T03:52:59;13.63;;;9.15;;
17953;SDS011;9102;53.548;9.926;2023-06-22T03:55:25;11.73;;;7.93;;
17953;SDS011;9102;53.548;9.926;2023-06-22T03:57:53;14.57;;;8.52;;
17953;SDS011;9102;53.548;9.926;2023-06-22T04:00:22;18.23;;;8.88;;
17953;SDS011;9102;53.548;9.926;2023-06-22T04:02:50;10.50;;;6.72;;
17953;SDS011;9102;53.548;9.926;2023-06-22T04:05:17;11.45;;;8.20;;
17953;SDS011;9102;53.548;9.926;2023-06-22T04:07:44;12.77;;;8.05;;
17953;SDS011;9102;53.548;9.926;2023-06-22T04:10:10;14.13;;;8.52;;
17953;SDS011;9102;53.548;9.926;2023-06-22T04:12:37;12.70;;;7.97;;
17953;SDS011;9102;53.548;9.926;2023-06-22T04:15:05;10.90;;;7.90;;
17953;SDS011;9102;53.548;9.926;2023-06-22T04:17:32;10.32;;;7.03;;
17953;SDS011;9102;53.548;9.926;2023-06-22T04:20:00;9.38;;;7.05;;
17953;SDS011;9102;53.548;9.926;2023-06-22T04:22:28;9.40;;;6.85;;
17953;SDS011;9102;53.548;9.926;2023-06-22T04:24:55;8.73;;;6.07;;
17953;SDS011;9102;53.548;9.926;2023-06-22T04:27:22;11.85;;;7.03;;
17953;SDS011;9102;53.548;9.926;2023-06-22T04:29:49;7.63;;;6.05;;
17953;SDS011;9102;53.548;9.926;2023-06-22T04:32:16;11.73;;;6.82;;
17953;SDS011;9102;53.548;9.926;2023-06-22T04:34:43;9.63;;;6.75;;
17953;SDS011;9102;53.548;9.926;2023-06-22T04:37:11;8.45;;;6.10;;
17953;SDS011;9102;53.548;9.926;2023-06-22T04:39:40;13.55;;;6.32;;
17953;SDS011;9102;53.548;9.926;2023-06-22T04:42:07;8.70;;;6.50;;
17953;SDS011;9102;53.548;9.926;2023-06-22T04:44:34;14.77;;;6.50;;
17953;SDS011;9102;53.548;9.926;2023-06-22T04:47:01;11.18;;;6.60;;
17953;SDS011;9102;53.548;9.926;2023-06-22T04:49:31;8.75;;;6.05;;
17953;SDS011;9102;53.548;9.926;2023-06-22T04:51:59;7.88;;;4.97;;
17953;SDS011;9102;53.548;9.926;2023-06-22T04:54:28;10.57;;;5.72;;
17953;SDS011;9102;53.548;9.926;2023-06-22T04:56:58;11.48;;;6.20;;
17953;SDS011;9102;53.548;9.926;2023-06-22T04:59:25;7.38;;;5.38;;
17953;SDS011;9102;53.548;9.926;2023-06-22T05:01:54;8.18;;;6.25;;
17953;SDS011;9102;53.548;9.926;2023-06-22T05:04:21;9.30;;;5.38;;
17953;SDS011;9102;53.548;9.926;2023-06-22T05:06:49;9.93;;;5.53;;
17953;SDS011;9102;53.548;9.926;2023-06-22T05:09:16;10.00;;;6.13;;
17953;SDS011;9102;53.548;9.926;2023-06-22T05:11:44;9.50;;;5.45;;
17953;SDS011;9102;53.548;9.926;2023-06-22T05:14:11;7.75;;;5.25;;
17953;SDS011;9102;53.548;9.926;2023-06-22T05:16:39;10.15;;;5.88;;
17953;SDS011;9102;53.548;9.926;2023-06-22T05:19:06;8.80;;;5.13;;
17953;SDS011;9102;53.548;9.926;2023-06-22T05:21:33;10.32;;;5.32;;
17953;SDS011;9102;53.548;9.926;2023-06-22T05:24:00;7.63;;;5.55;;
17953;SDS011;9102;53.548;9.926;2023-06-22T05:26:28;9.18;;;5.38;;
17953;SDS011;9102;53.548;9.926;2023-06-22T05:28:56;6.82;;;5.00;;
17953;SDS011;9102;53.548;9.926;2023-06-22T05:31:23;8.05;;;5.15;;
17953;SDS011;9102;53.548;9.926;2023-06-22T05:33:51;7.93;;;4.57;;
17953;SDS011;9102;53.548;9.926;2023-06-22T05:36:19;7.32;;;4.82;;
17953;SDS011;9102;53.548;9.926;2023-06-22T05:38:46;7.72;;;4.82;;
17953;SDS011;9102;53.548;9.926;2023-06-22T05:41:13;9.40;;;5.03;;
17953;SDS011;9102;53.548;9.926;2023-06-22T05:43:40;7.38;;;4.72;;
17953;SDS011;9102;53.548;9.926;2023-06-22T05:46:08;6.65;;;4.05;;
17953;SDS011;9102;53.548;9.926;2023-06-22T05:48:35;10.50;;;6.18;;
17953;SDS011;9102;53.548;9.926;2023-06-22T05:51:02;12.95;;;4.63;;
17953;SDS011;9102;53.548;9.926;2023-06-22T05:53:29;7.00;;;4.57;;
17953;SDS011;9102;53.548;9.926;2023-06-22T05:55:55;12.63;;;4.63;;
17953;SDS011;9102;53.548;9.926;2023-06-22T05:58:22;5.20;;;3.90;;
17953;SDS011;9102;53.548;9.926;2023-06-22T06:00:49;6.90;;;4.38;;
17953;SDS011;9102;53.548;9.926;2023-06-22T06:03:17;6.47;;;4.00;;
17953;SDS011;9102;53.548;9.926;2023-06-22T06:05:44;6.60;;;4.47;;
17953;SDS011;9102;53.548;9.926;2023-06-22T06:08:11;7.28;;;4.22;;
17953;SDS011;9102;53.548;9.926;2023-06-22T06:10:38;6.70;;;4.15;;
17953;SDS011;9102;53.548;9.926;2023-06-22T06:13:05;6.15;;;4.07;;
17953;SDS011;9102;53.548;9.926;2023-06-22T06:15:32;6.50;;;4.20;;
17953;SDS011;9102;53.548;9.926;2023-06-22T06:18:00;7.28;;;4.22;;
17953;SDS011;9102;53.548;9.926;2023-06-22T06:20:31;7.32;;;3.85;;
17953;SDS011;9102;53.548;9.926;2023-06-22T06:22:58;8.90;;;4.57;;
17953;SDS011;9102;53.548;9.926;2023-06-22T06:25:25;7.75;;;4.10;;
17953;SDS011;9102;53.548;9.926;2023-06-22T06:27:52;5.32;;;3.00;;
17953;SDS011;9102;53.548;9.926;2023-06-22T06:30:19;8.55;;;4.10;;
17953;SDS011;9102;53.548;9.926;2023-06-22T06:32:47;5.35;;;3.80;;
17953;SDS011;9102;53.548;9.926;2023-06-22T06:35:15;9.05;;;4.55;;
17953;SDS011;9102;53.548;9.926;2023-06-22T06:37:44;7.32;;;4.07;;
17953;SDS011;9102;53.548;9.926;2023-06-22T06:40:12;6.97;;;3.30;;
17953;SDS011;9102;53.548;9.926;2023-06-22T06:42:41;4.68;;;3.20;;
17953;SDS011;9102;53.548;9.926;2023-06-22T06:45:10;5.07;;;3.45;;
17953;SDS011;9102;53.548;9.926;2023-06-22T06:47:37;11.73;;;3.67;;
17953;SDS011;9102;53.548;9.926;2023-06-22T06:50:05;6.22;;;3.33;;
17953;SDS011;9102;53.548;9.926;2023-06-22T06:52:39;7.72;;;4.20;;
17953;SDS011;9102;53.548;9.926;2023-06-22T06:55:08;9.23;;;4.00;;
17953;SDS011;9102;53.548;9.926;2023-06-22T06:57:36;6.38;;;4.00;;
17953;SDS011;9102;53.548;9.926;2023-06-22T07:00:04;5.68;;;3.55;;
17953;SDS011;9102;53.548;9.926;2023-06-22T07:02:35;7.05;;;3.75;;
17953;SDS011;9102;53.548;9.926;2023-06-22T07:05:04;7.57;;;4.22;;
17953;SDS011;9102;53.548;9.926;2023-06-22T07:07:31;6.40;;;3.40;;
17953;SDS011;9102;53.548;9.926;2023-06-22T07:09:58;7.13;;;3.70;;
17953;SDS011;9102;53.548;9.926;2023-06-22T07:12:26;7.05;;;3.55;;
17953;SDS011;9102;53.548;9.926;2023-06-22T07:14:53;7.82;;;3.80;;
17953;SDS011;9102;53.548;9.926;2023-06-22T07:17:19;5.57;;;3.85;;
17953;SDS011;9102;53.548;9.926;2023-06-22T07:19:46;7.90;;;3.88;;
17953;SDS011;9102;53.548;9.926;2023-06-22T07:22:13;9.15;;;3.72;;
17953;SDS011;9102;53.548;9.926;2023-06-22T07:24:40;9.90;;;3.50;;
17953;SDS011;9102;53.548;9.926;2023-06-22T07:27:06;7.97;;;3.60;;
17953;SDS011;9102;53.548;9.926;2023-06-22T07:29:37;7.32;;;3.70;;
17953;SDS011;9102;53.548;9.926;2023-06-22T07:32:06;6.22;;;3.67;;
17953;SDS011;9102;53.548;9.926;2023-06-22T07:34:33;5.20;;;3.30;;
17953;SDS011;9102;53.548;9.926;2023-06-22T07:37:00;7.80;;;3.35;;
17953;SDS011;9102;53.548;9.926;2023-06-22T07:39:28;6.93;;;3.65;;
17953;SDS011;9102;53.548;9.926;2023-06-22T07:41:55;5.70;;;3.50;;
17953;SDS011;9102;53.548;9.926;2023-06-22T07:44:21;3.80;;;3.20;;
17953;SDS011;9102;53.548;9.926;2023-06-22T07:46:49;7.03;;;3.63;;
17953;SDS011;9102;53.548;9.926;2023-06-22T07:49:16;7.32;;;3.45;;
17953;SDS011;9102;53.548;9.926;2023-06-22T07:51:43;6.80;;;3.40;;
17953;SDS011;9102;53.548;9.926;2023-06-22T07:54:11;3.85;;;3.08;;
17953;SDS011;9102;53.548;9.926;2023-06-22T07:56:40;5.00;;;3.25;;
17953;SDS011;9102;53.548;9.926;2023-06-22T07:59:08;8.23;;;3.10;;
17953;SDS011;9102;53.548;9.926;2023-06-22T08:01:34;6.97;;;3.05;;
17953;SDS011;9102;53.548;9.926;2023-06-22T08:04:03;4.75;;;3.05;;
17953;SDS011;9102;53.548;9.926;2023-06-22T08:06:30;6.35;;;3.20;;
17953;SDS011;9102;53.548;9.926;2023-06-22T08:09:01;7.45;;;3.28;;
17953;SDS011;9102;53.548;9.926;2023-06-22T08:11:30;7.03;;;2.90;;
17953;SDS011;9102;53.548;9.926;2023-06-22T08:13:57;5.13;;;3.25;;
17953;SDS011;9102;53.548;9.926;2023-06-22T08:16:24;4.35;;;2.70;;
17953;SDS011;9102;53.548;9.926;2023-06-22T08:18:51;4.53;;;3.03;;
17953;SDS011;9102;53.548;9.926;2023-06-22T08:21:19;6.25;;;3.03;;
17953;SDS011;9102;53.548;9.926;2023-06-22T08:23:46;6.63;;;3.00;;
17953;SDS011;9102;53.548;9.926;2023-06-22T08:26:13;5.10;;;2.63;;
17953;SDS011;9102;53.548;9.926;2023-06-22T08:28:40;7.07;;;3.50;;
17953;SDS011;9102;53.548;9.926;2023-06-22T08:31:07;3.65;;;2.47;;
17953;SDS011;9102;53.548;9.926;2023-06-22T08:33:34;6.97;;;3.00;;
17953;SDS011;9102;53.548;9.926;2023-06-22T08:36:01;6.50;;;3.03;;
17953;SDS011;9102;53.548;9.926;2023-06-22T08:38:32;3.38;;;2.17;;
17953;SDS011;9102;53.548;9.926;2023-06-22T08:40:59;3.92;;;2.20;;
17953;SDS011;9102;53.548;9.926;2023-06-22T08:43:26;4.07;;;2.33;;
17953;SDS011;9102;53.548;9.926;2023-06-22T08:45:53;3.88;;;2.30;;
17953;SDS011;9102;53.548;9.926;2023-06-22T08:48:19;3.30;;;2.40;;
17953;SDS011;9102;53.548;9.926;2023-06-22T08:50:46;3.90;;;2.55;;
17953;SDS011;9102;53.548;9.926;2023-06-22T08:53:13;4.22;;;2.20;;
17953;SDS011;9102;53.548;9.926;2023-06-22T08:55:41;6.82;;;2.72;;
17953;SDS011;9102;53.548;9.926;2023-06-22T08:58:08;5.35;;;2.78;;
17953;SDS011;9102;53.548;9.926;2023-06-22T09:00:35;5.40;;;2.30;;
17953;SDS011;9102;53.548;9.926;2023-06-22T09:03:02;3.50;;;2.53;;
17953;SDS011;9102;53.548;9.926;2023-06-22T09:05:29;6.78;;;2.42;;
17953;SDS011;9102;53.548;9.926;2023-06-22T09:07:56;5.03;;;2.85;;
17953;SDS011;9102;53.548;9.926;2023-06-22T09:10:24;5.25;;;2.70;;
17953;SDS011;9102;53.548;9.926;2023-06-22T09:12:52;4.53;;;3.05;;
17953;SDS011;9102;53.548;9.926;2023-06-22T09:15:19;6.65;;;3.50;;
17953;SDS011;9102;53.548;9.926;2023-06-22T09:17:46;5.93;;;3.50;;
17953;SDS011;9102;53.548;9.926;2023-06-22T09:20:13;10.05;;;3.25;;
17953;SDS011;9102;53.548;9.926;2023-06-22T09:22:40;5.50;;;3.13;;
17953;SDS011;9102;53.548;9.926;2023-06-22T09:25:07;5.05;;;2.75;;
17953;SDS011;9102;53.548;9.926;2023-06-22T09:27:35;6.45;;;2.95;;
17953;SDS011;9102;53.548;9.926;2023-06-22T09:30:03;4.93;;;2.70;;
17953;SDS011;9102;53.548;9.926;2023-06-22T09:32:31;4.22;;;2.70;;
17953;SDS011;9102;53.548;9.926;2023-06-22T09:34:58;6.63;;;2.90;;
17953;SDS011;9102;53.548;9.926;2023-06-22T09:37:25;3.28;;;2.33;;
17953;SDS011;9102;53.548;9.926;2023-06-22T09:39:51;7.28;;;3.20;;
17953;SDS011;9102;53.548;9.926;2023-06-22T09:42:18;4.75;;;2.72;;
17953;SDS011;9102;53.548;9.926;2023-06-22T09:44:46;6.72;;;3.35;;
17953;SDS011;9102;53.548;9.926;2023-06-22T09:47:14;5.25;;;3.05;;
17953;SDS011;9102;53.548;9.926;2023-06-22T09:49:41;5.40;;;3.22;;
17953;SDS011;9102;53.548;9.926;2023-06-22T09:52:08;7.53;;;3.17;;
17953;SDS011;9102;53.548;9.926;2023-06-22T09:54:36;4.72;;;2.42;;
17953;SDS011;9102;53.548;9.926;2023-06-22T09:57:03;4.53;;;2.88;;
17953;SDS011;9102;53.548;9.926;2023-06-22T09:59:30;7.07;;;3.00;;
17953;SDS011;9102;53.548;9.926;2023-06-22T10:01:57;5.82;;;2.72;;
17953;SDS011;9102;53.548;9.926;2023-06-22T10:04:26;8.05;;;3.22;;
17953;SDS011;9102;53.548;9.926;2023-06-22T10:06:53;6.47;;;3.10;;
17953;SDS011;9102;53.548;9.926;2023-06-22T10:09:20;7.25;;;3.00;;
17953;SDS011;9102;53.548;9.926;2023-06-22T10:11:47;6.95;;;3.03;;
17953;SDS011;9102;53.548;9.926;2023-06-22T10:14:14;8.13;;;2.80;;
17953;SDS011;9102;53.548;9.926;2023-06-22T10:16:41;3.85;;;2.95;;
17953;SDS011;9102;53.548;9.926;2023-06-22T10:19:08;8.65;;;3.20;;
17953;SDS011;9102;53.548;9.926;2023-06-22T10:21:36;4.60;;;2.75;;
17953;SDS011;9102;53.548;9.926;2023-06-22T10:24:03;5.88;;;2.60;;
17953;SDS011;9102;53.548;9.926;2023-06-22T10:26:32;4.82;;;2.90;;
17953;SDS011;9102;53.548;9.926;2023-06-22T10:28:58;5.22;;;2.92;;
17953;SDS011;9102;53.548;9.926;2023-06-22T10:31:25;6.68;;;3.38;;
17953;SDS011;9102;53.548;9.926;2023-06-22T10:33:52;5.05;;;3.20;;
17953;SDS011;9102;53.548;9.926;2023-06-22T10:36:19;7.07;;;3.58;;
17953;SDS011;9102;53.548;9.926;2023-06-22T10:38:48;6.75;;;3.47;;
17953;SDS011;9102;53.548;9.926;2023-06-22T10:41:15;8.10;;;3.40;;
17953;SDS011;9102;53.548;9.926;2023-06-22T10:43:42;4.03;;;2.70;;
17953;SDS011;9102;53.548;9.926;2023-06-22T10:46:08;9.77;;;3.38;;
17953;SDS011;9102;53.548;9.926;2023-06-22T10:48:35;5.80;;;3.72;;
17953;SDS011;9102;53.548;9.926;2023-06-22T10:51:02;6.22;;;3.53;;
17953;SDS011;9102;53.548;9.926;2023-06-22T10:53:29;6.13;;;3.00;;
17953;SDS011;9102;53.548;9.926;2023-06-22T10:55:57;3.70;;;2.90;;
17953;SDS011;9102;53.548;9.926;2023-06-22T10:58:24;3.90;;;3.33;;
17953;SDS011;9102;53.548;9.926;2023-06-22T11:00:51;4.15;;;3.00;;
17953;SDS011;9102;53.548;9.926;2023-06-22T11:03:18;5.10;;;3.25;;
17953;SDS011;9102;53.548;9.926;2023-06-22T11:05:45;4.95;;;3.42;;
17953;SDS011;9102;53.548;9.926;2023-06-22T11:08:12;7.88;;;3.53;;
17953;SDS011;9102;53.548;9.926;2023-06-22T11:10:39;8.00;;;4.43;;
17953;SDS011;9102;53.548;9.926;2023-06-22T11:13:07;7.60;;;4.78;;
17953;SDS011;9102;53.548;9.926;2023-06-22T11:15:35;7.82;;;3.40;;
17953;SDS011;9102;53.548;9.926;2023-06-22T11:18:02;5.30;;;3.78;;
17953;SDS011;9102;53.548;9.926;2023-06-22T11:20:30;5.93;;;2.97;;
17953;SDS011;9102;53.548;9.926;2023-06-22T11:22:59;7.03;;;3.80;;
17953;SDS011;9102;53.548;9.926;2023-06-22T11:25:26;4.57;;;3.00;;
17953;SDS011;9102;53.548;9.926;2023-06-22T11:27:53;7.72;;;3.67;;
17953;SDS011;9102;53.548;9.926;2023-06-22T11:30:22;6.35;;;3.50;;
17953;SDS011;9102;53.548;9.926;2023-06-22T11:32:48;4.72;;;3.42;;
17953;SDS011;9102;53.548;9.926;2023-06-22T11:35:15;6.35;;;3.63;;
17953;SDS011;9102;53.548;9.926;2023-06-22T11:37:42;7.20;;;3.63;;
17953;SDS011;9102;53.548;9.926;2023-06-22T11:40:09;9.00;;;4.15;;
17953;SDS011;9102;53.548;9.926;2023-06-22T11:42:38;8.00;;;3.60;;
17953;SDS011;9102;53.548;9.926;2023-06-22T11:45:05;5.50;;;3.70;;
17953;SDS011;9102;53.548;9.926;2023-06-22T11:47:34;6.35;;;3.63;;
17953;SDS011;9102;53.548;9.926;2023-06-22T11:50:01;7.78;;;3.92;;
17953;SDS011;9102;53.548;9.926;2023-06-22T11:52:28;6.50;;;3.25;;
17953;SDS011;9102;53.548;9.926;2023-06-22T11:54:55;7.00;;;4.22;;
17953;SDS011;9102;53.548;9.926;2023-06-22T11:57:24;4.65;;;3.25;;
17953;SDS011;9102;53.548;9.926;2023-06-22T11:59:51;5.72;;;3.75;;
17953;SDS011;9102;53.548;9.926;2023-06-22T12:02:17;9.43;;;4.00;;
17953;SDS011;9102;53.548;9.926;2023-06-22T12:04:45;5.38;;;3.75;;
17953;SDS011;9102;53.548;9.926;2023-06-22T12:07:12;7.70;;;3.90;;
17953;SDS011;9102;53.548;9.926;2023-06-22T12:09:39;5.05;;;3.80;;
17953;SDS011;9102;53.548;9.926;2023-06-22T12:12:06;7.22;;;3.72;;
17953;SDS011;9102;53.548;9.926;2023-06-22T12:14:33;5.65;;;3.45;;
17953;SDS011;9102;53.548;9.926;2023-06-22T12:17:00;5.00;;;3.63;;
17953;SDS011;9102;53.548;9.926;2023-06-22T12:19:27;5.40;;;4.18;;
17953;SDS011;9102;53.548;9.926;2023-06-22T12:21:55;6.20;;;4.20;;
17953;SDS011;9102;53.548;9.926;2023-06-22T12:24:22;4.88;;;3.65;;
17953;SDS011;9102;53.548;9.926;2023-06-22T12:26:49;4.35;;;3.45;;
17953;SDS011;9102;53.548;9.926;2023-06-22T12:29:16;4.60;;;3.50;;
17953;SDS011;9102;53.548;9.926;2023-06-22T12:31:42;7.38;;;4.30;;
17953;SDS011;9102;53.548;9.926;2023-06-22T12:34:09;5.90;;;4.90;;
17953;SDS011;9102;53.548;9.926;2023-06-22T12:36:36;6.75;;;5.22;;
17953;SDS011;9102;53.548;9.926;2023-06-22T12:39:04;5.47;;;4.57;;
17953;SDS011;9102;53.548;9.926;2023-06-22T12:41:31;5.00;;;4.18;;
17953;SDS011;9102;53.548;9.926;2023-06-22T12:43:58;10.15;;;5.22;;
17953;SDS011;9102;53.548;9.926;2023-06-22T12:46:24;8.52;;;5.70;;
17953;SDS011;9102;53.548;9.926;2023-06-22T12:48:51;5.63;;;4.70;;
17953;SDS011;9102;53.548;9.926;2023-06-22T12:51:21;5.55;;;4.80;;
17953;SDS011;9102;53.548;9.926;2023-06-22T12:53:48;6.75;;;5.10;;
17953;SDS011;9102;53.548;9.926;2023-06-22T12:56:17;7.10;;;4.25;;
17953;SDS011;9102;53.548;9.926;2023-06-22T12:58:43;5.05;;;3.92;;
17953;SDS011;9102;53.548;9.926;2023-06-22T13:01:10;5.03;;;4.18;;
17953;SDS011;9102;53.548;9.926;2023-06-22T13:03:37;4.97;;;4.13;;
17953;SDS011;9102;53.548;9.926;2023-06-22T13:06:04;4.53;;;3.70;;
17953;SDS011;9102;53.548;9.926;2023-06-22T13:08:31;7.07;;;4.05;;
17953;SDS011;9102;53.548;9.926;2023-06-22T13:27:28;6.20;;;4.15;;
17953;SDS011;9102;53.548;9.926;2023-06-22T13:29:56;4.82;;;3.95;;
17953;SDS011;9102;53.548;9.926;2023-06-22T13:32:23;5.15;;;4.43;;
17953;SDS011;9102;53.548;9.926;2023-06-22T13:34:52;7.35;;;4.90;;
17953;SDS011;9102;53.548;9.926;2023-06-22T13:37:19;5.18;;;4.28;;
17953;SDS011;9102;53.548;9.926;2023-06-22T13:39:45;7.00;;;4.50;;
17953;SDS011;9102;53.548;9.926;2023-06-22T13:42:14;6.78;;;4.13;;
17953;SDS011;9102;53.548;9.926;2023-06-22T13:44:40;6.80;;;4.35;;
17953;SDS011;9102;53.548;9.926;2023-06-22T13:47:07;4.50;;;3.80;;
17953;SDS011;9102;53.548;9.926;2023-06-22T13:49:34;4.45;;;4.05;;
17953;SDS011;9102;53.548;9.926;2023-06-22T13:52:01;5.78;;;4.70;;
17953;SDS011;9102;53.548;9.926;2023-06-22T13:54:29;7.88;;;4.45;;
17953;SDS011;9102;53.548;9.926;2023-06-22T13:56:56;4.13;;;3.70;;
17953;SDS011;9102;53.548;9.926;2023-06-22T13:59:24;20.92;;;6.85;;
17953;SDS011;9102;53.548;9.926;2023-06-22T14:01:51;6.70;;;4.18;;
17953;SDS011;9102;53.548;9.926;2023-06-22T14:04:18;5.53;;;4.72;;
17953;SDS011;9102;53.548;9.926;2023-06-22T14:06:45;6.32;;;4.30;;
17953;SDS011;9102;53.548;9.926;2023-06-22T14:09:11;4.82;;;4.28;;
17953;SDS011;9102;53.548;9.926;2023-06-22T14:11:38;4.80;;;4.15;;
17953;SDS011;9102;53.548;9.926;2023-06-22T14:14:05;6.00;;;4.88;;
17953;SDS011;9102;53.548;9.926;2023-06-22T14:16:33;5.88;;;4.15;;
17953;SDS011;9102;53.548;9.926;2023-06-22T14:19:00;5.75;;;4.30;;
17953;SDS011;9102;53.548;9.926;2023-06-22T14:21:27;8.73;;;4.80;;
17953;SDS011;9102;53.548;9.926;2023-06-22T14:23:54;6.10;;;4.50;;
17953;SDS011;9102;53.548;9.926;2023-06-22T14:26:21;7.45;;;4.38;;
17953;SDS011;9102;53.548;9.926;2023-06-22T14:28:48;8.88;;;4.47;;
17953;SDS011;9102;53.548;9.926;2023-06-22T14:31:16;5.30;;;4.25;;
17953;SDS011;9102;53.548;9.926;2023-06-22T14:33:46;6.70;;;4.47;;
17953;SDS011;9102;53.548;9.926;2023-06-22T14:36:14;8.95;;;3.90;;
17953;SDS011;9102;53.548;9.926;2023-06-22T14:38:42;5.35;;;4.40;;
17953;SDS011;9102;53.548;9.926;2023-06-22T14:41:08;5.72;;;4.22;;
17953;SDS011;9102;53.548;9.926;2023-06-22T14:43:35;9.30;;;4.63;;
17953;SDS011;9102;53.548;9.926;2023-06-22T14:46:02;7.75;;;4.55;;
17953;SDS011;9102;53.548;9.926;2023-06-22T14:48:29;8.18;;;4.38;;
17953;SDS011;9102;53.548;9.926;2023-06-22T14:50:57;6.70;;;4.20;;
17953;SDS011;9102;53.548;9.926;2023-06-22T14:53:25;6.55;;;4.90;;
17953;SDS011;9102;53.548;9.926;2023-06-22T14:55:52;10.07;;;4.70;;
17953;SDS011;9102;53.548;9.926;2023-06-22T14:58:19;5.38;;;4.55;;
17953;SDS011;9102;53.548;9.926;2023-06-22T15:00:46;7.00;;;4.70;;
17953;SDS011;9102;53.548;9.926;2023-06-22T15:03:14;7.38;;;4.80;;
17953;SDS011;9102;53.548;9.926;2023-06-22T15:05:46;7.07;;;4.10;;
17953;SDS011;9102;53.548;9.926;2023-06-22T15:08:14;6.70;;;4.40;;
17953;SDS011;9102;53.548;9.926;2023-06-22T15:10:41;5.15;;;4.38;;
17953;SDS011;9102;53.548;9.926;2023-06-22T15:13:08;6.45;;;4.60;;
17953;SDS011;9102;53.548;9.926;2023-06-22T15:15:36;8.07;;;5.18;;